Time;durP1;ratioP1;P1;durP2;ratioP2;P2;SDS_P1;SDS_P2;PMS_P1;PMS_P2;Temp;Humidity;BMP_temperature;BMP_pressure;BME280_temperature;BME280_humidity;BME280_pressure;Samples;Min_cycle;Max_cycle;Signal;HPM_P1;HPM_P2
2021/01/14 00:00:25;;;;;;;15.60;9.67;;;4.00;99.90;;;;;;4995662;28;20224;-64
2021/01/14 00:02:51;;;;;;;16.13;9.73;;;4.00;99.90;;;;;;4976117;28;20252;-63
2021/01/14 00:05:16;;;;;;;16.10;8.83;;;4.00;99.90;;;;;;4976420;28;20244;-64
2021/01/14 00:07:42;;;;;;;10.63;7.17;;;4.00;99.90;;;;;;5014719;28;20168;-65
2021/01/14 00:10:10;;;;;;;12.33;8.10;;;4.00;99.90;;;;;;5014954;28;20198;-63
2021/01/14 00:12:36;;;;;;;20.03;9.57;;;4.00;99.90;;;;;;4996626;28;20552;-63
2021/01/14 00:15:04;;;;;;;17.77;8.87;;;3.90;99.90;;;;;;4995240;28;21027;-62
2021/01/14 00:17:30;;;;;;;9.20;8.20;;;3.90;99.90;;;;;;5012072;28;20641;-63
2021/01/14 00:19:56;;;;;;;15.40;8.50;;;4.00;99.90;;;;;;5013514;28;20193;-62
2021/01/14 00:22:21;;;;;;;18.50;9.37;;;3.90;99.90;;;;;;4995094;28;20187;-64
2021/01/14 00:24:47;;;;;;;9.57;7.60;;;3.90;99.90;;;;;;4995159;28;20558;-63
2021/01/14 00:27:13;;;;;;;16.27;8.87;;;3.90;99.90;;;;;;5013344;28;20200;-64
2021/01/14 00:29:38;;;;;;;12.30;8.70;;;3.80;99.90;;;;;;5014373;28;20286;-63
2021/01/14 00:32:04;;;;;;;15.90;9.17;;;3.80;99.90;;;;;;4997135;28;20185;-63
2021/01/14 00:34:31;;;;;;;16.60;8.77;;;3.80;99.90;;;;;;4994876;28;20191;-63
2021/01/14 00:39:40;;;;;;;13.77;6.67;;;3.80;99.90;;;;;;4994825;28;20212;-63
2021/01/14 00:42:06;;;;;;;15.50;8.97;;;3.80;99.90;;;;;;5006150;28;20573;-63
2021/01/14 00:44:32;;;;;;;13.60;7.50;;;3.80;99.90;;;;;;5009461;28;20254;-63
2021/01/14 00:46:58;;;;;;;10.07;6.67;;;3.90;99.90;;;;;;5014047;28;20259;-63
2021/01/14 00:49:25;;;;;;;15.63;7.17;;;3.90;99.90;;;;;;5000438;28;20201;-63
2021/01/14 00:51:51;;;;;;;17.37;6.77;;;3.90;99.90;;;;;;5000909;28;20188;-63
2021/01/14 00:54:17;;;;;;;14.27;6.50;;;3.90;99.90;;;;;;4995261;28;20227;-63
2021/01/14 00:56:43;;;;;;;17.70;7.03;;;4.00;99.90;;;;;;5007257;28;20666;-63
2021/01/14 00:59:09;;;;;;;12.73;5.40;;;4.00;99.90;;;;;;5014018;28;20200;-63
2021/01/14 01:01:38;;;;;;;18.50;5.43;;;4.00;99.90;;;;;;5002496;28;20242;-63
2021/01/14 01:04:04;;;;;;;10.80;4.97;;;3.90;99.90;;;;;;4994441;28;20208;-64
2021/01/14 01:06:38;;;;;;;8.90;4.00;;;3.90;99.90;;;;;;5008507;28;20188;-63
2021/01/14 01:09:05;;;;;;;8.77;4.33;;;3.90;99.90;;;;;;5013578;28;20179;-64
2021/01/14 01:11:31;;;;;;;15.77;4.30;;;3.80;99.90;;;;;;4999607;28;20280;-63
2021/01/14 01:13:57;;;;;;;13.53;4.50;;;3.80;99.90;;;;;;4994257;28;20248;-63
2021/01/14 01:16:23;;;;;;;9.60;3.77;;;3.80;99.90;;;;;;5006125;28;20184;-66
2021/01/14 01:18:49;;;;;;;19.03;4.10;;;3.80;99.90;;;;;;5013593;28;20325;-63
2021/01/14 01:21:15;;;;;;;9.63;3.97;;;3.80;99.90;;;;;;4995166;28;20192;-64
2021/01/14 01:23:41;;;;;;;8.67;3.83;;;3.70;99.90;;;;;;4994011;28;20208;-63
2021/01/14 01:26:07;;;;;;;9.70;4.20;;;3.70;99.90;;;;;;5010646;28;20176;-63
2021/01/14 01:28:33;;;;;;;9.97;3.83;;;3.70;99.90;;;;;;5013129;28;20176;-64
2021/01/14 01:30:59;;;;;;;10.03;4.00;;;3.70;99.90;;;;;;5001890;28;20224;-65
2021/01/14 01:33:27;;;;;;;7.43;3.67;;;3.70;99.90;;;;;;5005025;28;20525;-64
2021/01/14 01:35:54;;;;;;;7.60;4.10;;;3.70;99.90;;;;;;5011904;28;20267;-63
2021/01/14 01:38:20;;;;;;;8.37;3.03;;;3.60;99.90;;;;;;5012989;28;20180;-63
2021/01/14 01:40:54;;;;;;;10.40;3.10;;;3.60;99.90;;;;;;5011381;28;20196;-63
2021/01/14 01:43:20;;;;;;;6.53;2.80;;;3.60;99.90;;;;;;4992468;28;20207;-63
2021/01/14 01:45:45;;;;;;;14.37;3.53;;;3.60;99.90;;;;;;4993922;28;20526;-63
2021/01/14 01:48:11;;;;;;;6.23;2.30;;;3.50;99.90;;;;;;5012876;28;20629;-63
2021/01/14 01:50:37;;;;;;;2.87;2.07;;;3.60;99.90;;;;;;5013336;28;20192;-64
2021/01/14 01:53:03;;;;;;;8.93;2.40;;;3.50;99.90;;;;;;4995073;28;20668;-63
2021/01/14 01:55:28;;;;;;;5.70;2.27;;;3.50;99.90;;;;;;4994094;28;20607;-63
2021/01/14 01:57:54;;;;;;;7.30;2.33;;;3.50;99.90;;;;;;4995823;28;20199;-63
2021/01/14 02:00:20;;;;;;;4.97;2.30;;;3.40;99.90;;;;;;4993755;28;20662;-64
2021/01/14 02:02:45;;;;;;;3.63;2.00;;;3.40;99.90;;;;;;5011840;28;20219;-63
2021/01/14 02:05:12;;;;;;;4.53;2.10;;;3.50;99.90;;;;;;5010903;28;20643;-62
2021/01/14 02:07:48;;;;;;;6.03;2.00;;;3.50;99.90;;;;;;4992827;28;20185;-63
2021/01/14 02:10:31;;;;;;;4.83;2.50;;;3.50;99.90;;;;;;4993936;28;20272;-63
2021/01/14 02:13:27;;;;;;;3.93;2.10;;;3.50;99.90;;;;;;5012777;28;20168;-63
2021/01/14 02:15:57;;;;;;;8.73;2.30;;;3.50;99.90;;;;;;4985915;28;20412;-62
2021/01/14 02:18:24;;;;;;;5.13;2.50;;;3.50;99.90;;;;;;4992846;28;20248;-63
2021/01/14 02:20:54;;;;;;;11.87;2.73;;;3.50;99.90;;;;;;4997631;28;20198;-64
2021/01/14 02:24:01;;;;;;;6.10;2.40;;;3.40;99.90;;;;;;5012492;28;20295;-63
2021/01/14 02:26:27;;;;;;;10.00;2.97;;;3.50;99.90;;;;;;4982609;28;20191;-63
2021/01/14 02:28:54;;;;;;;9.33;3.33;;;3.50;99.90;;;;;;4992383;28;20221;-63
2021/01/14 02:31:22;;;;;;;8.93;3.13;;;3.50;99.90;;;;;;5000044;28;20225;-65
2021/01/14 02:33:49;;;;;;;9.47;3.07;;;3.40;99.90;;;;;;5012450;28;20633;-63
2021/01/14 02:36:15;;;;;;;11.67;2.60;;;3.40;99.90;;;;;;5006186;28;20581;-64
2021/01/14 02:38:41;;;;;;;2.53;2.33;;;3.40;99.90;;;;;;4991941;28;20181;-63
2021/01/14 02:41:07;;;;;;;9.67;3.70;;;3.30;99.90;;;;;;4979120;28;20283;-62
2021/01/14 02:43:33;;;;;;;4.03;1.97;;;3.30;99.90;;;;;;5009167;28;20295;-63
2021/01/14 02:45:59;;;;;;;8.30;2.80;;;3.20;99.90;;;;;;5000699;28;20211;-64
2021/01/14 02:48:43;;;;;;;5.50;2.60;;;3.20;99.90;;;;;;4992511;28;20169;-63
2021/01/14 02:51:18;;;;;;;7.27;2.37;;;3.20;99.90;;;;;;5003353;28;20543;-63
2021/01/14 02:53:44;;;;;;;5.00;2.00;;;3.10;99.90;;;;;;4994520;28;20211;-63
2021/01/14 02:56:10;;;;;;;4.70;2.10;;;3.10;99.90;;;;;;4993550;28;20177;-62
2021/01/14 02:58:36;;;;;;;5.33;2.60;;;3.10;99.90;;;;;;4991230;28;20239;-63
2021/01/14 03:01:02;;;;;;;5.80;2.00;;;3.10;99.90;;;;;;5008008;28;20196;-62
2021/01/14 03:03:28;;;;;;;3.90;2.37;;;3.00;99.90;;;;;;4999912;28;20205;-63
2021/01/14 03:05:53;;;;;;;11.17;2.50;;;3.00;99.90;;;;;;4992294;28;20170;-62
2021/01/14 03:08:19;;;;;;;5.53;2.57;;;3.00;99.90;;;;;;5001448;28;20649;-63
2021/01/14 03:10:45;;;;;;;2.70;1.73;;;3.00;99.90;;;;;;5011809;28;20195;-62
2021/01/14 03:13:11;;;;;;;6.50;2.47;;;3.00;99.90;;;;;;5003642;28;20180;-64
2021/01/14 03:15:36;;;;;;;8.17;2.10;;;2.90;99.90;;;;;;5002031;28;20447;-63
2021/01/14 03:18:03;;;;;;;5.33;2.20;;;3.00;99.90;;;;;;5005163;28;20184;-62
2021/01/14 03:20:28;;;;;;;14.03;2.40;;;3.00;99.90;;;;;;4992069;28;20279;-63
2021/01/14 03:22:54;;;;;;;5.20;2.20;;;2.90;99.90;;;;;;4996582;28;20318;-63
2021/01/14 03:25:20;;;;;;;5.67;1.90;;;3.00;99.90;;;;;;5011545;28;20173;-63
2021/01/14 03:27:46;;;;;;;7.37;2.23;;;3.00;99.90;;;;;;5008641;28;20733;-64
2021/01/14 03:30:14;;;;;;;5.20;2.20;;;2.90;99.90;;;;;;4991971;28;20200;-64
2021/01/14 03:32:40;;;;;;;3.63;2.67;;;2.80;99.90;;;;;;5003818;28;20176;-65
2021/01/14 03:35:06;;;;;;;8.33;2.30;;;2.90;99.90;;;;;;5004749;28;20548;-64
2021/01/14 03:37:35;;;;;;;3.33;2.00;;;2.90;99.90;;;;;;4991379;28;20176;-63
2021/01/14 03:40:01;;;;;;;9.27;3.30;;;2.90;99.90;;;;;;4997400;28;20672;-62
2021/01/14 03:42:27;;;;;;;8.83;2.60;;;2.90;99.90;;;;;;5011483;28;20259;-64
2021/01/14 03:44:52;;;;;;;6.73;2.30;;;2.80;99.90;;;;;;5007661;28;20296;-64
2021/01/14 03:47:22;;;;;;;4.30;2.07;;;2.80;99.90;;;;;;4991436;28;20180;-63
2021/01/14 03:49:48;;;;;;;2.40;1.80;;;2.70;99.90;;;;;;5006619;28;20224;-64
2021/01/14 03:52:13;;;;;;;9.17;2.23;;;2.70;99.90;;;;;;5011438;28;20177;-61
2021/01/14 03:54:39;;;;;;;7.23;2.17;;;2.70;99.90;;;;;;5001901;28;20181;-63
2021/01/14 03:57:05;;;;;;;8.17;2.40;;;2.80;99.90;;;;;;5011194;28;20181;-63
2021/01/14 03:59:31;;;;;;;6.47;2.40;;;2.80;99.90;;;;;;4999627;28;20205;-61
2021/01/14 04:02:00;;;;;;;5.60;2.13;;;2.70;99.90;;;;;;4991854;28;20173;-63
2021/01/14 04:04:26;;;;;;;8.93;2.80;;;2.70;99.90;;;;;;4992583;28;20693;-63
2021/01/14 04:06:52;;;;;;;8.87;2.30;;;2.70;99.90;;;;;;4991611;28;20165;-62
2021/01/14 04:09:18;;;;;;;9.17;2.57;;;2.70;99.90;;;;;;5001486;28;20192;-64
2021/01/14 04:11:43;;;;;;;6.80;2.27;;;2.70;99.90;;;;;;5014898;28;20164;-62
2021/01/14 04:14:09;;;;;;;6.63;2.47;;;2.70;99.90;;;;;;5007892;28;20634;-62
2021/01/14 04:16:34;;;;;;;2.63;1.90;;;2.70;99.90;;;;;;4995259;28;20185;-63
2021/01/14 04:19:00;;;;;;;7.13;2.40;;;2.70;99.90;;;;;;5004554;28;20716;-64
2021/01/14 04:21:27;;;;;;;5.13;1.87;;;2.60;99.90;;;;;;5014596;28;20182;-63
2021/01/14 04:23:52;;;;;;;7.00;2.20;;;2.60;99.90;;;;;;5005941;28;20212;-62
2021/01/14 04:26:18;;;;;;;5.87;2.50;;;2.60;99.90;;;;;;4995080;28;20173;-63
2021/01/14 04:28:44;;;;;;;5.30;2.83;;;2.60;99.90;;;;;;5001137;28;20539;-64
2021/01/14 04:31:12;;;;;;;2.30;1.90;;;2.60;99.90;;;;;;5014527;28;20231;-62
2021/01/14 04:33:37;;;;;;;4.87;2.20;;;2.60;99.90;;;;;;5009050;28;20176;-64
2021/01/14 04:36:03;;;;;;;6.40;2.30;;;2.60;99.90;;;;;;4995006;28;20256;-65
2021/01/14 04:38:29;;;;;;;6.73;2.20;;;2.70;99.90;;;;;;4997341;28;20207;-64
2021/01/14 04:40:57;;;;;;;5.23;2.50;;;2.70;99.90;;;;;;4995266;28;20201;-63
2021/01/14 04:43:24;;;;;;;1.90;1.70;;;2.60;99.90;;;;;;4996040;28;20248;-64
2021/01/14 04:45:54;;;;;;;5.27;2.47;;;2.60;99.90;;;;;;5014639;28;20179;-64
2021/01/14 04:48:21;;;;;;;2.90;2.40;;;2.60;99.90;;;;;;4987413;28;20181;-64
2021/01/14 04:50:48;;;;;;;4.67;1.83;;;2.60;99.90;;;;;;4994667;28;20193;-63
2021/01/14 04:53:14;;;;;;;5.30;2.30;;;2.60;99.90;;;;;;4978140;28;20187;-64
2021/01/14 04:55:45;;;;;;;8.83;2.60;;;2.60;99.90;;;;;;4994831;28;20185;-63
2021/01/14 04:58:17;;;;;;;2.60;1.93;;;2.60;99.90;;;;;;5003102;28;20176;-64
2021/01/14 05:00:51;;;;;;;3.17;1.90;;;2.60;99.90;;;;;;5014143;28;20263;-63
2021/01/14 05:03:22;;;;;;;8.50;2.30;;;2.60;99.90;;;;;;5004307;28;20246;-64
2021/01/14 05:05:49;;;;;;;8.87;2.10;;;2.60;99.90;;;;;;5008239;28;20191;-64
2021/01/14 05:08:16;;;;;;;3.93;2.10;;;2.50;99.90;;;;;;5004944;28;20177;-62
2021/01/14 05:10:44;;;;;;;2.27;2.00;;;2.50;99.90;;;;;;4994375;28;20552;-63
2021/01/14 05:13:10;;;;;;;6.97;1.80;;;2.40;99.90;;;;;;5001377;28;20187;-61
2021/01/14 05:15:38;;;;;;;4.73;2.50;;;2.40;99.90;;;;;;5012094;28;20299;-62
2021/01/14 05:18:04;;;;;;;11.40;2.33;;;2.40;99.90;;;;;;5013450;28;20173;-63
2021/01/14 05:20:30;;;;;;;6.53;2.20;;;2.40;99.90;;;;;;5009684;28;20208;-61
2021/01/14 05:23:00;;;;;;;5.00;1.90;;;2.30;99.90;;;;;;4994025;28;20169;-63
2021/01/14 05:25:26;;;;;;;6.43;2.57;;;2.30;99.90;;;;;;4977752;28;20173;-61
2021/01/14 05:27:52;;;;;;;8.10;2.00;;;2.20;99.90;;;;;;5013448;28;20197;-60
2021/01/14 05:30:18;;;;;;;4.50;2.07;;;2.10;99.90;;;;;;5036403;23;20319;-64
2021/01/14 05:32:45;;;;;;;2.73;2.07;;;2.10;99.90;;;;;;5033367;28;20628;-64
2021/01/14 05:35:26;;;;;;;2.57;2.20;;;2.10;99.90;;;;;;5026644;28;20250;-65
2021/01/14 05:37:52;;;;;;;8.53;2.00;;;2.10;99.90;;;;;;5013120;28;20695;-65
2021/01/14 05:40:24;;;;;;;4.30;1.77;;;2.00;99.90;;;;;;5005968;28;20192;-65
2021/01/14 05:43:06;;;;;;;4.70;2.07;;;2.10;99.90;;;;;;5012502;28;20176;-65
2021/01/14 05:45:34;;;;;;;5.97;2.00;;;2.10;99.90;;;;;;5004935;28;20180;-65
2021/01/14 05:48:11;;;;;;;6.83;2.33;;;2.10;99.90;;;;;;4993504;28;20169;-65
2021/01/14 05:50:43;;;;;;;7.50;2.63;;;2.10;99.90;;;;;;4994529;28;20184;-64
2021/01/14 05:53:26;;;;;;;3.30;2.10;;;2.00;99.90;;;;;;5000402;28;20176;-64
2021/01/14 05:55:55;;;;;;;5.83;2.53;;;2.00;99.90;;;;;;5013168;28;20656;-65
2021/01/14 05:58:21;;;;;;;7.07;2.00;;;2.10;99.90;;;;;;5004499;28;20165;-64
2021/01/14 06:00:48;;;;;;;6.10;2.90;;;2.10;99.90;;;;;;4993536;28;20193;-64
2021/01/14 06:03:30;;;;;;;7.57;2.50;;;2.10;99.90;;;;;;4999588;28;20637;-63
2021/01/14 06:05:57;;;;;;;7.50;2.20;;;2.00;99.90;;;;;;4997615;28;20635;-63
2021/01/14 06:08:28;;;;;;;5.13;2.43;;;2.00;99.90;;;;;;4999862;28;20211;-64
2021/01/14 06:10:54;;;;;;;4.10;1.83;;;2.00;99.90;;;;;;5012985;28;20196;-64
2021/01/14 06:13:40;;;;;;;8.43;2.30;;;2.00;99.90;;;;;;5006293;28;20507;-64
2021/01/14 06:16:06;;;;;;;4.17;2.30;;;2.00;99.90;;;;;;4993195;28;20192;-64
2021/01/14 06:18:32;;;;;;;6.17;2.37;;;2.00;99.90;;;;;;5000020;28;20184;-64
2021/01/14 06:20:57;;;;;;;2.80;2.00;;;1.90;99.90;;;;;;5008316;28;20224;-64
2021/01/14 06:23:23;;;;;;;3.77;2.47;;;1.90;99.90;;;;;;4992741;28;20682;-64
2021/01/14 06:25:51;;;;;;;5.13;2.23;;;1.90;99.90;;;;;;4995253;28;20180;-64
2021/01/14 06:28:22;;;;;;;11.87;2.97;;;1.90;99.90;;;;;;5012358;28;20187;-64
2021/01/14 06:31:01;;;;;;;3.27;2.30;;;1.80;99.90;;;;;;5010526;28;20627;-64
2021/01/14 06:33:28;;;;;;;4.93;2.63;;;1.80;99.90;;;;;;4992869;28;20722;-64
2021/01/14 06:36:05;;;;;;;12.10;2.80;;;1.70;99.90;;;;;;4994757;28;20189;-64
2021/01/14 06:38:48;;;;;;;3.67;2.37;;;1.80;99.90;;;;;;5011998;28;20179;-64
2021/01/14 06:41:21;;;;;;;4.00;2.23;;;1.80;99.90;;;;;;5007917;28;20196;-64
2021/01/14 06:43:51;;;;;;;3.60;2.60;;;1.70;99.90;;;;;;4992716;28;20246;-64
2021/01/14 06:46:22;;;;;;;12.73;2.67;;;1.80;99.90;;;;;;4996374;28;20527;-64
2021/01/14 06:49:09;;;;;;;11.43;2.97;;;1.80;99.90;;;;;;5003182;28;20188;-64
2021/01/14 06:51:49;;;;;;;9.87;2.97;;;1.80;99.90;;;;;;5004168;28;20646;-64
2021/01/14 06:54:18;;;;;;;12.07;3.47;;;1.70;99.90;;;;;;4997347;28;20185;-64
2021/01/14 06:57:16;;;;;;;8.77;2.83;;;1.80;99.90;;;;;;5005254;28;20311;-64
2021/01/14 06:59:42;;;;;;;5.20;3.07;;;1.70;99.90;;;;;;5007344;28;20219;-64
2021/01/14 07:02:08;;;;;;;4.83;2.60;;;1.70;99.90;;;;;;4995777;28;20188;-64
2021/01/14 07:05:01;;;;;;;9.80;2.73;;;1.70;99.90;;;;;;4992320;28;20204;-64
2021/01/14 07:07:26;;;;;;;3.43;2.27;;;1.80;99.90;;;;;;5009613;28;20172;-64
2021/01/14 07:10:10;;;;;;;4.67;2.77;;;1.80;99.90;;;;;;5011857;28;20271;-64
2021/01/14 07:12:44;;;;;;;4.40;3.10;;;1.80;99.90;;;;;;4993061;28;20207;-64
2021/01/14 07:15:17;;;;;;;10.90;3.77;;;1.90;99.90;;;;;;4992363;28;20557;-64
2021/01/14 07:17:44;;;;;;;5.80;3.00;;;1.90;99.90;;;;;;5010604;28;20184;-64
2021/01/14 07:20:12;;;;;;;9.23;3.53;;;1.80;99.90;;;;;;5006755;28;20204;-64
2021/01/14 07:22:39;;;;;;;11.80;3.83;;;1.90;99.90;;;;;;4992269;28;20210;-64
2021/01/14 07:25:08;;;;;;;8.87;3.27;;;1.90;99.90;;;;;;5002201;28;20208;-64
2021/01/14 07:27:35;;;;;;;8.97;3.20;;;1.80;99.90;;;;;;5011173;28;20180;-64
2021/01/14 07:30:01;;;;;;;6.47;2.53;;;1.90;99.90;;;;;;5009094;28;20697;-64
2021/01/14 07:33:04;;;;;;;9.07;3.00;;;2.00;99.90;;;;;;4992021;28;20260;-64
2021/01/14 07:35:41;;;;;;;5.73;2.80;;;2.00;99.90;;;;;;4996975;28;20180;-64
2021/01/14 07:38:12;;;;;;;7.80;3.37;;;1.90;99.90;;;;;;5011508;28;20229;-64
2021/01/14 07:40:39;;;;;;;11.67;4.60;;;1.90;99.90;;;;;;5004832;28;20278;-65
2021/01/14 07:43:08;;;;;;;9.67;4.40;;;1.90;99.90;;;;;;4992098;28;20176;-64
2021/01/14 07:45:34;;;;;;;9.40;4.67;;;2.00;99.90;;;;;;5000260;28;20541;-64
2021/01/14 07:48:18;;;;;;;7.97;4.43;;;1.90;99.90;;;;;;5015044;28;20657;-64
2021/01/14 07:50:58;;;;;;;7.77;3.43;;;1.90;99.90;;;;;;5001514;28;20541;-64
2021/01/14 07:53:25;;;;;;;5.70;3.10;;;2.00;99.90;;;;;;4995610;28;20173;-64
2021/01/14 07:55:52;;;;;;;5.57;2.63;;;1.90;99.90;;;;;;5009665;28;20180;-64
2021/01/14 07:58:24;;;;;;;9.17;2.60;;;2.00;99.90;;;;;;5005510;28;20263;-64
2021/01/14 08:01:07;;;;;;;9.33;3.27;;;1.90;99.90;;;;;;4996289;28;20272;-64
2021/01/14 08:03:37;;;;;;;4.67;2.60;;;1.90;99.90;;;;;;5005370;28;20207;-65
2021/01/14 08:06:27;;;;;;;9.20;3.03;;;1.90;99.90;;;;;;5012037;28;20208;-63
2021/01/14 08:09:04;;;;;;;7.93;2.67;;;2.00;99.90;;;;;;4990066;28;20185;-64
2021/01/14 08:11:30;;;;;;;7.27;2.53;;;2.00;99.90;;;;;;5013164;28;20210;-65
2021/01/14 08:14:05;;;;;;;8.27;2.60;;;2.10;99.90;;;;;;5014913;28;20542;-64
2021/01/14 08:16:42;;;;;;;5.17;2.60;;;2.10;99.90;;;;;;4996571;28;20263;-64
2021/01/14 08:19:08;;;;;;;8.10;2.87;;;2.20;99.90;;;;;;4994904;28;20165;-64
2021/01/14 08:21:34;;;;;;;5.80;2.87;;;2.30;99.90;;;;;;5012616;28;20211;-64
2021/01/14 08:24:01;;;;;;;3.97;2.87;;;2.30;99.90;;;;;;4999722;28;20648;-64
2021/01/14 08:26:26;;;;;;;13.13;3.93;;;2.40;99.90;;;;;;4994894;28;20256;-64
2021/01/14 08:29:00;;;;;;;9.97;4.10;;;2.40;99.90;;;;;;4998674;28;20267;-64
2021/01/14 08:31:37;;;;;;;14.43;4.70;;;2.40;99.90;;;;;;4994636;28;20232;-64
2021/01/14 08:34:06;;;;;;;5.83;2.87;;;2.50;99.90;;;;;;5007770;28;20184;-62
2021/01/14 08:36:41;;;;;;;7.63;3.77;;;2.60;99.90;;;;;;5014262;28;20207;-65
2021/01/14 08:39:17;;;;;;;6.97;3.30;;;2.60;99.90;;;;;;5013855;28;20175;-64
2021/01/14 08:41:44;;;;;;;13.47;3.80;;;2.70;99.90;;;;;;5014268;28;20707;-64
2021/01/14 08:44:11;;;;;;;7.07;3.70;;;2.60;99.90;;;;;;5014003;28;20257;-64
2021/01/14 08:46:40;;;;;;;13.60;3.97;;;2.60;99.90;;;;;;5013980;28;20200;-65
2021/01/14 08:49:26;;;;;;;11.97;4.43;;;2.60;99.90;;;;;;5014133;28;20192;-64
2021/01/14 08:52:02;;;;;;;6.80;4.10;;;2.60;99.90;;;;;;5014113;28;20506;-64
2021/01/14 08:54:30;;;;;;;9.43;5.17;;;2.60;99.90;;;;;;5013927;28;20203;-65
2021/01/14 08:57:04;;;;;;;11.60;7.07;;;2.70;99.90;;;;;;5012761;28;20172;-62
2021/01/14 08:59:29;;;;;;;12.90;7.30;;;2.80;99.90;;;;;;5013827;28;20569;-65
2021/01/14 09:01:58;;;;;;;18.73;10.27;;;2.90;99.90;;;;;;5013939;28;20180;-64
2021/01/14 09:04:25;;;;;;;24.07;16.50;;;2.90;99.90;;;;;;5013922;28;20270;-64
2021/01/14 09:06:51;;;;;;;13.70;8.23;;;2.90;99.90;;;;;;5013766;28;20164;-64
2021/01/14 09:09:17;;;;;;;11.90;5.97;;;3.00;99.90;;;;;;5013803;28;20168;-64
2021/01/14 09:11:43;;;;;;;12.67;6.27;;;3.10;99.90;;;;;;5013646;28;20168;-64
2021/01/14 09:14:13;;;;;;;5.97;3.23;;;3.10;99.90;;;;;;5013900;28;20180;-65
2021/01/14 09:16:41;;;;;;;7.80;3.67;;;3.20;99.90;;;;;;5011651;28;20212;-64
2021/01/14 09:19:21;;;;;;;8.03;3.70;;;3.30;99.90;;;;;;5006396;28;20185;-65
2021/01/14 09:21:48;;;;;;;4.40;3.77;;;3.30;99.90;;;;;;4997889;28;20179;-62
2021/01/14 09:24:15;;;;;;;7.47;3.00;;;3.40;99.90;;;;;;5004928;28;20211;-65
2021/01/14 09:26:42;;;;;;;4.60;2.97;;;3.40;99.90;;;;;;4993766;28;20176;-64
2021/01/14 09:29:11;;;;;;;10.83;4.50;;;3.50;99.90;;;;;;4994790;28;20169;-63
2021/01/14 09:31:38;;;;;;;14.90;5.10;;;3.60;99.90;;;;;;5013151;28;20660;-64
2021/01/14 09:34:04;;;;;;;5.60;3.30;;;3.70;99.90;;;;;;4994468;28;20606;-65
2021/01/14 09:36:30;;;;;;;8.37;3.17;;;3.70;99.90;;;;;;4993631;28;20600;-64
2021/01/14 09:38:59;;;;;;;9.00;3.20;;;3.60;99.90;;;;;;5009248;28;20176;-64
2021/01/14 09:41:35;;;;;;;9.70;3.30;;;3.60;99.90;;;;;;5013223;28;20701;-64
2021/01/14 09:44:13;;;;;;;8.20;3.00;;;3.50;99.90;;;;;;4996763;28;20688;-63
2021/01/14 09:46:44;;;;;;;8.80;3.23;;;3.50;99.90;;;;;;4993367;28;20287;-64
2021/01/14 09:49:14;;;;;;;6.60;2.63;;;3.40;99.90;;;;;;5009991;28;20200;-64
2021/01/14 09:51:41;;;;;;;6.23;2.73;;;3.30;99.90;;;;;;5013081;28;20599;-64
2021/01/14 09:54:08;;;;;;;7.13;2.50;;;3.40;99.90;;;;;;4997062;28;20181;-64
2021/01/14 09:56:47;;;;;;;3.93;2.50;;;3.40;99.90;;;;;;4993323;28;20267;-64
2021/01/14 09:59:29;;;;;;;7.67;2.70;;;3.40;99.90;;;;;;4994459;28;20575;-64
2021/01/14 10:02:07;;;;;;;6.40;3.03;;;3.40;99.90;;;;;;4993489;28;20204;-64
2021/01/14 10:04:35;;;;;;;6.77;2.83;;;3.50;99.90;;;;;;4973645;28;20216;-64
2021/01/14 10:07:03;;;;;;;2.90;2.40;;;3.50;99.90;;;;;;4973171;28;20256;-63
2021/01/14 10:09:32;;;;;;;4.77;2.50;;;3.50;99.90;;;;;;5011292;28;20627;-64
2021/01/14 10:11:58;;;;;;;4.43;2.73;;;3.50;99.90;;;;;;5012687;28;20176;-63
2021/01/14 10:14:23;;;;;;;8.03;3.03;;;3.50;99.90;;;;;;4994733;28;20701;-64
2021/01/14 10:16:49;;;;;;;7.43;3.10;;;3.50;99.90;;;;;;4992724;28;20717;-64
2021/01/14 10:19:19;;;;;;;6.07;2.63;;;3.50;99.90;;;;;;5008642;28;20184;-63
2021/01/14 10:21:49;;;;;;;4.27;2.43;;;3.60;99.90;;;;;;5012323;28;20180;-64
2021/01/14 10:24:29;;;;;;;6.20;2.87;;;3.50;99.90;;;;;;5010844;28;20199;-64
2021/01/14 10:27:13;;;;;;;9.33;3.00;;;3.40;99.90;;;;;;5012388;28;20239;-65
2021/01/14 10:29:39;;;;;;;5.27;2.97;;;3.40;99.90;;;;;;5011285;28;20204;-64
2021/01/14 10:32:13;;;;;;;6.50;3.27;;;3.40;99.90;;;;;;5012395;28;20221;-64
2021/01/14 10:34:44;;;;;;;5.63;2.90;;;3.50;99.90;;;;;;4973259;28;20426;-65
2021/01/14 10:37:24;;;;;;;6.70;2.90;;;3.60;99.90;;;;;;4973186;28;20177;-64
2021/01/14 10:39:54;;;;;;;7.67;3.10;;;3.60;99.90;;;;;;4973187;28;20201;-62
2021/01/14 10:42:27;;;;;;;6.53;3.20;;;3.70;99.90;;;;;;4973889;28;20239;-64
2021/01/14 10:45:12;;;;;;;4.20;3.07;;;3.70;99.90;;;;;;5012057;28;20250;-64
2021/01/14 10:47:40;;;;;;;5.80;4.10;;;3.70;99.90;;;;;;5009474;28;20208;-63
2021/01/14 10:50:18;;;;;;;4.77;3.90;;;3.60;99.90;;;;;;4992502;28;20203;-64
2021/01/14 10:53:04;;;;;;;9.53;3.47;;;3.70;99.90;;;;;;4994504;28;20198;-63
2021/01/14 10:55:33;;;;;;;6.17;3.90;;;3.70;99.90;;;;;;5011050;28;20179;-64
2021/01/14 10:58:01;;;;;;;6.33;3.73;;;3.80;99.90;;;;;;4992090;28;20294;-64
2021/01/14 11:00:32;;;;;;;6.43;4.53;;;3.70;99.90;;;;;;5010875;28;20207;-64
2021/01/14 11:03:02;;;;;;;9.57;5.33;;;3.70;99.90;;;;;;5011938;28;20238;-65
2021/01/14 11:05:48;;;;;;;13.80;4.40;;;3.70;99.90;;;;;;4992489;28;20278;-64
2021/01/14 11:08:18;;;;;;;7.67;4.30;;;3.70;99.90;;;;;;4992113;28;20304;-64
2021/01/14 11:10:47;;;;;;;6.57;4.20;;;3.70;99.90;;;;;;5011750;28;20199;-64
2021/01/14 11:13:15;;;;;;;4.27;3.87;;;3.60;99.90;;;;;;5011706;28;20183;-65
2021/01/14 11:15:41;;;;;;;6.63;4.20;;;3.60;99.90;;;;;;5001170;28;20188;-64
2021/01/14 11:18:07;;;;;;;3.97;3.50;;;3.60;99.90;;;;;;4991223;28;20198;-64
2021/01/14 11:20:33;;;;;;;3.80;3.43;;;3.60;99.90;;;;;;5010492;28;20290;-64
2021/01/14 11:23:00;;;;;;;6.67;3.63;;;3.60;99.90;;;;;;5011661;28;20211;-63
2021/01/14 11:25:26;;;;;;;6.93;4.00;;;3.60;99.90;;;;;;4994917;28;20204;-62
2021/01/14 11:27:53;;;;;;;5.33;3.83;;;3.60;99.90;;;;;;4991516;28;20180;-61
2021/01/14 11:32:46;;;;;;;5.00;3.90;;;3.70;99.90;;;;;;5010380;28;20211;-63
2021/01/14 11:35:13;;;;;;;6.53;4.00;;;3.70;99.90;;;;;;5025230;28;20209;-63
2021/01/14 11:37:38;;;;;;;6.93;3.63;;;3.70;99.90;;;;;;5029927;28;20281;-64
2021/01/14 11:40:05;;;;;;;7.37;3.63;;;3.80;99.90;;;;;;5014133;28;20605;-63
2021/01/14 11:42:30;;;;;;;4.27;3.40;;;3.90;99.90;;;;;;4992057;28;20188;-64
2021/01/14 11:44:56;;;;;;;7.90;3.97;;;3.90;99.90;;;;;;5002186;28;20598;-62
2021/01/14 11:47:22;;;;;;;5.60;3.57;;;4.00;99.90;;;;;;5011136;28;20633;-63
2021/01/14 11:49:47;;;;;;;3.87;3.30;;;4.00;99.90;;;;;;5002701;28;20220;-64
2021/01/14 11:52:15;;;;;;;4.73;3.63;;;4.00;99.90;;;;;;4996368;28;20234;-64
2021/01/14 11:54:41;;;;;;;8.20;4.00;;;4.20;99.90;;;;;;5010705;28;20195;-64
2021/01/14 11:57:07;;;;;;;6.57;3.70;;;4.20;99.90;;;;;;5007986;28;20169;-64
2021/01/14 11:59:33;;;;;;;3.03;2.70;;;4.30;99.90;;;;;;4991430;28;20176;-63
2021/01/14 12:01:58;;;;;;;6.13;3.10;;;4.50;99.90;;;;;;4992685;28;20537;-63
2021/01/14 12:04:24;;;;;;;5.70;3.33;;;4.30;99.90;;;;;;4993173;28;20204;-63
2021/01/14 12:06:51;;;;;;;9.93;3.60;;;4.30;99.90;;;;;;5011033;28;20257;-63
2021/01/14 12:09:16;;;;;;;6.63;4.20;;;4.20;99.90;;;;;;4991690;28;20263;-63
2021/01/14 12:11:42;;;;;;;5.27;3.03;;;4.30;99.90;;;;;;4991538;28;20666;-64
2021/01/14 12:14:07;;;;;;;4.93;2.93;;;4.20;99.90;;;;;;5008666;28;20263;-63
2021/01/14 12:16:33;;;;;;;7.00;3.97;;;4.20;99.90;;;;;;5010737;28;20254;-63
2021/01/14 12:18:59;;;;;;;3.53;2.83;;;4.20;99.90;;;;;;4994554;28;20180;-63
2021/01/14 12:21:24;;;;;;;4.87;3.13;;;4.20;99.90;;;;;;5002598;28;20334;-64
2021/01/14 12:23:50;;;;;;;3.93;3.30;;;4.20;99.90;;;;;;5011021;28;20208;-64
2021/01/14 12:26:15;;;;;;;3.47;2.80;;;4.20;99.90;;;;;;5000834;28;20208;-64
2021/01/14 12:28:41;;;;;;;4.30;2.97;;;4.20;99.90;;;;;;4991067;28;20181;-64
2021/01/14 12:31:06;;;;;;;4.57;2.80;;;4.30;99.90;;;;;;5001808;28;20215;-64
2021/01/14 12:33:32;;;;;;;6.30;3.20;;;4.30;99.90;;;;;;5014463;28;20172;-64
2021/01/14 12:35:58;;;;;;;7.43;3.70;;;4.30;99.90;;;;;;5007717;28;20189;-64
2021/01/14 12:38:23;;;;;;;4.27;2.80;;;4.20;99.90;;;;;;4994562;28;20177;-63
2021/01/14 12:40:49;;;;;;;4.10;3.10;;;4.30;99.90;;;;;;4999272;28;20624;-64
2021/01/14 12:43:15;;;;;;;6.20;2.73;;;4.10;99.90;;;;;;5014207;28;20176;-64
2021/01/14 12:45:40;;;;;;;3.70;2.83;;;4.00;99.90;;;;;;5010991;28;20188;-64
2021/01/14 12:48:06;;;;;;;5.50;2.70;;;4.00;99.90;;;;;;4994548;28;20529;-64
2021/01/14 12:50:32;;;;;;;4.73;2.77;;;3.90;99.90;;;;;;5012571;28;20204;-63
2021/01/14 12:52:58;;;;;;;6.93;3.00;;;3.90;99.90;;;;;;5014216;28;20171;-63
2021/01/14 12:55:24;;;;;;;3.67;3.07;;;3.90;99.90;;;;;;4997285;28;20199;-63
2021/01/14 12:57:49;;;;;;;3.00;2.77;;;4.00;99.90;;;;;;4975686;28;20193;-64
2021/01/14 13:00:15;;;;;;;7.53;3.20;;;4.20;99.90;;;;;;5013853;28;20235;-64
2021/01/14 13:02:41;;;;;;;4.87;2.97;;;4.30;99.90;;;;;;5009840;28;20193;-65
2021/01/14 13:05:08;;;;;;;5.03;3.43;;;4.40;99.90;;;;;;4994767;28;20197;-64
2021/01/14 13:07:36;;;;;;;7.90;3.33;;;4.50;99.90;;;;;;4997113;28;20180;-63
2021/01/14 13:10:05;;;;;;;3.43;3.23;;;4.50;99.90;;;;;;5013634;28;20258;-64